sensor_id;sensor_type;location;lat;lon;timestamp;pressure;altitude;pressure_sealevel;temperature;humidity
61086;BME280;46967;48.876;2.136;2022-11-15T00:00:27;100836.94;;;10.48;99.92
61086;BME280;46967;48.876;2.136;2022-11-15T00:02:53;100833.63;;;10.42;100.00
61086;BME280;46967;48.876;2.136;2022-11-15T00:05:19;100832.78;;;10.41;100.00
61086;BME280;46967;48.876;2.136;2022-11-15T00:07:44;100833.69;;;10.40;100.00
61086;BME280;46967;48.876;2.136;2022-11-15T00:10:09;100829.44;;;10.38;99.87
61086;BME280;46967;48.876;2.136;2022-11-15T00:12:35;100826.03;;;10.36;100.00
61086;BME280;46967;48.876;2.136;2022-11-15T00:15:00;100829.44;;;10.38;99.27
61086;BME280;46967;48.876;2.136;2022-11-15T00:17:25;100814.06;;;10.30;99.53
61086;BME280;46967;48.876;2.136;2022-11-15T00:19:51;100820.22;;;10.26;99.33
61086;BME280;46967;48.876;2.136;2022-11-15T00:22:16;100821.09;;;10.26;98.92
61086;BME280;46967;48.876;2.136;2022-11-15T00:24:41;100818.50;;;10.26;98.23
61086;BME280;46967;48.876;2.136;2022-11-15T00:27:07;100819.53;;;10.19;98.41
61086;BME280;46967;48.876;2.136;2022-11-15T00:29:33;100812.81;;;10.13;98.76
61086;BME280;46967;48.876;2.136;2022-11-15T00:31:58;100805.88;;;10.14;98.45
61086;BME280;46967;48.876;2.136;2022-11-15T00:34:23;100804.22;;;10.10;98.64
61086;BME280;46967;48.876;2.136;2022-11-15T00:36:49;100801.53;;;10.14;97.93
61086;BME280;46967;48.876;2.136;2022-11-15T00:39:14;100808.72;;;10.05;98.03
61086;BME280;46967;48.876;2.136;2022-11-15T00:41:39;100800.22;;;10.00;98.03
61086;BME280;46967;48.876;2.136;2022-11-15T00:44:05;100798.63;;;9.94;97.88
61086;BME280;46967;48.876;2.136;2022-11-15T00:46:30;100807.28;;;9.94;97.66
61086;BME280;46967;48.876;2.136;2022-11-15T00:48:56;100800.38;;;9.93;97.32
61086;BME280;46967;48.876;2.136;2022-11-15T00:51:21;100796.34;;;9.82;97.90
61086;BME280;46967;48.876;2.136;2022-11-15T00:53:46;100788.41;;;9.88;97.64
61086;BME280;46967;48.876;2.136;2022-11-15T00:56:12;100782.44;;;9.86;97.43
61086;BME280;46967;48.876;2.136;2022-11-15T00:58:37;100781.63;;;9.84;97.39
61086;BME280;46967;48.876;2.136;2022-11-15T01:01:10;100780.97;;;9.77;97.56
61086;BME280;46967;48.876;2.136;2022-11-15T01:03:38;100773.97;;;9.79;97.61
61086;BME280;46967;48.876;2.136;2022-11-15T01:06:03;100776.66;;;9.76;97.21
61086;BME280;46967;48.876;2.136;2022-11-15T01:08:29;100772.50;;;9.69;97.42
61086;BME280;46967;48.876;2.136;2022-11-15T01:10:54;100771.78;;;9.64;97.87
61086;BME280;46967;48.876;2.136;2022-11-15T01:13:20;100765.81;;;9.61;97.48
61086;BME280;46967;48.876;2.136;2022-11-15T01:15:45;100767.63;;;9.58;97.90
61086;BME280;46967;48.876;2.136;2022-11-15T01:18:10;100764.16;;;9.57;97.84
61086;BME280;46967;48.876;2.136;2022-11-15T01:20:42;100771.09;;;9.57;97.74
61086;BME280;46967;48.876;2.136;2022-11-15T01:23:08;100757.28;;;9.58;97.51
61086;BME280;46967;48.876;2.136;2022-11-15T01:25:33;100754.59;;;9.59;96.99
61086;BME280;46967;48.876;2.136;2022-11-15T01:27:58;100760.91;;;9.51;97.35
61086;BME280;46967;48.876;2.136;2022-11-15T01:30:24;100748.06;;;9.46;97.16
61086;BME280;46967;48.876;2.136;2022-11-15T01:32:49;100743.00;;;9.41;97.98
61086;BME280;46967;48.876;2.136;2022-11-15T01:35:15;100749.94;;;9.41;97.80
61086;BME280;46967;48.876;2.136;2022-11-15T01:37:40;100736.25;;;9.36;97.97
61086;BME280;46967;48.876;2.136;2022-11-15T01:40:06;100733.75;;;9.33;98.22
61086;BME280;46967;48.876;2.136;2022-11-15T01:42:31;100730.13;;;9.38;97.64
61086;BME280;46967;48.876;2.136;2022-11-15T01:44:57;100733.75;;;9.33;98.47
61086;BME280;46967;48.876;2.136;2022-11-15T01:47:25;100727.72;;;9.31;98.20
61086;BME280;46967;48.876;2.136;2022-11-15T01:50:04;100728.63;;;9.30;97.89
61086;BME280;46967;48.876;2.136;2022-11-15T01:52:33;100720.97;;;9.25;97.92
61086;BME280;46967;48.876;2.136;2022-11-15T01:55:19;100710.53;;;9.28;97.33
61086;BME280;46967;48.876;2.136;2022-11-15T01:57:48;100702.84;;;9.25;97.13
61086;BME280;46967;48.876;2.136;2022-11-15T02:00:16;100699.50;;;9.21;97.36
61086;BME280;46967;48.876;2.136;2022-11-15T02:02:41;100697.69;;;9.25;96.46
61086;BME280;46967;48.876;2.136;2022-11-15T02:05:07;100694.31;;;9.21;96.18
61086;BME280;46967;48.876;2.136;2022-11-15T02:07:34;100693.66;;;9.13;96.17
61086;BME280;46967;48.876;2.136;2022-11-15T02:10:12;100691.97;;;9.12;96.57
61086;BME280;46967;48.876;2.136;2022-11-15T02:12:37;100698.78;;;9.15;96.10
61086;BME280;46967;48.876;2.136;2022-11-15T02:15:04;100685.16;;;9.08;95.98
61086;BME280;46967;48.876;2.136;2022-11-15T02:23:53;100661.06;;;9.06;95.03
61086;BME280;46967;48.876;2.136;2022-11-15T02:35:01;100652.94;;;8.85;95.04
61086;BME280;46967;48.876;2.136;2022-11-15T02:37:57;100657.34;;;8.82;95.05
61086;BME280;46967;48.876;2.136;2022-11-15T02:40:41;100642.75;;;8.79;94.82
61086;BME280;46967;48.876;2.136;2022-11-15T02:43:12;100639.38;;;8.76;94.75
61086;BME280;46967;48.876;2.136;2022-11-15T02:46:07;100635.13;;;8.73;94.44
61086;BME280;46967;48.876;2.136;2022-11-15T02:48:35;100622.34;;;8.67;94.65
61086;BME280;46967;48.876;2.136;2022-11-15T02:51:01;100616.34;;;8.65;94.78
61086;BME280;46967;48.876;2.136;2022-11-15T02:53:27;100615.34;;;8.70;94.34
61086;BME280;46967;48.876;2.136;2022-11-15T02:55:54;100616.47;;;8.60;94.60
61086;BME280;46967;48.876;2.136;2022-11-15T03:01:30;100608.75;;;8.59;94.52
61086;BME280;46967;48.876;2.136;2022-11-15T03:04:06;100614.72;;;8.61;94.07
61086;BME280;46967;48.876;2.136;2022-11-15T03:06:35;100613.00;;;8.61;94.10
61086;BME280;46967;48.876;2.136;2022-11-15T03:09:34;100599.19;;;8.61;94.30
61086;BME280;46967;48.876;2.136;2022-11-15T03:12:11;100591.41;;;8.62;94.33
61086;BME280;46967;48.876;2.136;2022-11-15T03:14:48;100590.50;;;8.65;93.81
61086;BME280;46967;48.876;2.136;2022-11-15T03:17:28;100586.16;;;8.65;93.79
61086;BME280;46967;48.876;2.136;2022-11-15T03:20:03;100582.81;;;8.62;94.05
61086;BME280;46967;48.876;2.136;2022-11-15T03:22:35;100590.41;;;8.68;93.55
61086;BME280;46967;48.876;2.136;2022-11-15T03:25:04;100584.25;;;8.72;92.94
61086;BME280;46967;48.876;2.136;2022-11-15T03:27:36;100575.84;;;8.64;93.40
61086;BME280;46967;48.876;2.136;2022-11-15T03:30:05;100581.69;;;8.70;93.28
61086;BME280;46967;48.876;2.136;2022-11-15T03:32:36;100585.78;;;8.81;92.55
61086;BME280;46967;48.876;2.136;2022-11-15T03:35:07;100573.00;;;8.75;92.93
61086;BME280;46967;48.876;2.136;2022-11-15T03:37:42;100579.13;;;8.70;93.28
61086;BME280;46967;48.876;2.136;2022-11-15T03:40:09;100575.53;;;8.76;92.56
61086;BME280;46967;48.876;2.136;2022-11-15T03:42:46;100561.88;;;8.71;92.85
61086;BME280;46967;48.876;2.136;2022-11-15T03:45:17;100567.97;;;8.68;93.21
61086;BME280;46967;48.876;2.136;2022-11-15T03:48:10;100572.22;;;8.71;92.82
61086;BME280;46967;48.876;2.136;2022-11-15T03:50:38;100571.34;;;8.70;92.82
61086;BME280;46967;48.876;2.136;2022-11-15T03:53:04;100576.66;;;8.66;93.18
61086;BME280;46967;48.876;2.136;2022-11-15T03:55:32;100569.78;;;8.65;93.12
61086;BME280;46967;48.876;2.136;2022-11-15T03:58:00;100574.84;;;8.69;93.27
61086;BME280;46967;48.876;2.136;2022-11-15T04:00:26;100567.94;;;8.70;92.80
61086;BME280;46967;48.876;2.136;2022-11-15T04:02:51;100566.41;;;8.63;92.99
61086;BME280;46967;48.876;2.136;2022-11-15T04:05:17;100558.63;;;8.63;93.24
61086;BME280;46967;48.876;2.136;2022-11-15T04:07:42;100555.19;;;8.62;93.23
61086;BME280;46967;48.876;2.136;2022-11-15T04:10:11;100551.69;;;8.65;93.30
61086;BME280;46967;48.876;2.136;2022-11-15T04:12:40;100555.38;;;8.55;93.74
61086;BME280;46967;48.876;2.136;2022-11-15T04:15:10;100555.31;;;8.58;93.93
61086;BME280;46967;48.876;2.136;2022-11-15T04:17:48;100558.00;;;8.53;93.79
61086;BME280;46967;48.876;2.136;2022-11-15T04:23:13;100550.19;;;8.55;94.05
61086;BME280;46967;48.876;2.136;2022-11-15T04:26:01;100551.94;;;8.54;94.22
61086;BME280;46967;48.876;2.136;2022-11-15T04:28:27;100548.53;;;8.54;94.18
61086;BME280;46967;48.876;2.136;2022-11-15T04:30:52;100547.91;;;8.44;94.86
61086;BME280;46967;48.876;2.136;2022-11-15T04:33:18;100543.38;;;8.52;94.69
61086;BME280;46967;48.876;2.136;2022-11-15T04:35:44;100539.84;;;8.55;94.53
61086;BME280;46967;48.876;2.136;2022-11-15T04:38:29;100534.72;;;8.53;94.28
61086;BME280;46967;48.876;2.136;2022-11-15T04:40:54;100528.50;;;8.60;93.96
61086;BME280;46967;48.876;2.136;2022-11-15T04:43:20;100526.97;;;8.53;94.65
61086;BME280;46967;48.876;2.136;2022-11-15T04:45:45;100515.81;;;8.51;94.84
61086;BME280;46967;48.876;2.136;2022-11-15T04:48:10;100512.34;;;8.52;94.88
61086;BME280;46967;48.876;2.136;2022-11-15T04:50:36;100505.59;;;8.46;95.04
61086;BME280;46967;48.876;2.136;2022-11-15T04:53:01;100497.94;;;8.40;95.54
61086;BME280;46967;48.876;2.136;2022-11-15T04:55:26;100497.94;;;8.40;95.73
61086;BME280;46967;48.876;2.136;2022-11-15T04:58:02;100483.31;;;8.41;95.71
61086;BME280;46967;48.876;2.136;2022-11-15T05:00:28;100487.69;;;8.37;96.13
61086;BME280;46967;48.876;2.136;2022-11-15T05:02:55;100496.28;;;8.39;96.31
61086;BME280;46967;48.876;2.136;2022-11-15T05:05:39;100494.47;;;8.41;96.27
61086;BME280;46967;48.876;2.136;2022-11-15T05:08:04;100483.38;;;8.38;96.72
61086;BME280;46967;48.876;2.136;2022-11-15T05:10:30;100484.97;;;8.42;96.76
61086;BME280;46967;48.876;2.136;2022-11-15T05:12:55;100477.44;;;8.32;97.14
61086;BME280;46967;48.876;2.136;2022-11-15T05:15:20;100481.66;;;8.37;97.51
61086;BME280;46967;48.876;2.136;2022-11-15T05:17:46;100492.75;;;8.42;97.60
61086;BME280;46967;48.876;2.136;2022-11-15T05:20:11;100494.47;;;8.41;97.76
61086;BME280;46967;48.876;2.136;2022-11-15T05:22:37;100486.72;;;8.41;98.24
61086;BME280;46967;48.876;2.136;2022-11-15T05:25:03;100502.03;;;8.50;97.69
61086;BME280;46967;48.876;2.136;2022-11-15T05:27:29;100493.34;;;8.53;98.05
61086;BME280;46967;48.876;2.136;2022-11-15T05:29:54;100496.06;;;8.47;98.70
61086;BME280;46967;48.876;2.136;2022-11-15T05:32:20;100495.81;;;8.58;98.33
61086;BME280;46967;48.876;2.136;2022-11-15T05:34:45;100490.59;;;8.59;98.34
61086;BME280;46967;48.876;2.136;2022-11-15T05:37:11;100488.69;;;8.66;98.24
61086;BME280;46967;48.876;2.136;2022-11-15T05:39:36;100491.28;;;8.66;98.51
61086;BME280;46967;48.876;2.136;2022-11-15T05:42:13;100478.34;;;8.66;98.43
61086;BME280;46967;48.876;2.136;2022-11-15T05:44:41;100473.91;;;8.71;98.42
61086;BME280;46967;48.876;2.136;2022-11-15T05:47:12;100471.28;;;8.73;98.56
61086;BME280;46967;48.876;2.136;2022-11-15T05:49:41;100467.78;;;8.74;98.68
61086;BME280;46967;48.876;2.136;2022-11-15T05:52:09;100458.22;;;8.77;98.80
61086;BME280;46967;48.876;2.136;2022-11-15T05:54:37;100451.16;;;8.82;98.76
61086;BME280;46967;48.876;2.136;2022-11-15T05:57:03;100458.13;;;8.80;98.96
61086;BME280;46967;48.876;2.136;2022-11-15T05:59:30;100449.53;;;8.78;99.13
61086;BME280;46967;48.876;2.136;2022-11-15T06:01:56;100447.81;;;8.79;99.32
61086;BME280;46967;48.876;2.136;2022-11-15T06:04:21;100441.75;;;8.80;99.36
61086;BME280;46967;48.876;2.136;2022-11-15T06:06:47;100437.47;;;8.79;99.74
61086;BME280;46967;48.876;2.136;2022-11-15T06:09:12;100427.88;;;8.82;99.81
61086;BME280;46967;48.876;2.136;2022-11-15T06:11:37;100433.59;;;8.94;99.17
61086;BME280;46967;48.876;2.136;2022-11-15T06:14:03;100431.94;;;8.91;99.29
61086;BME280;46967;48.876;2.136;2022-11-15T06:16:28;100425.81;;;8.94;99.22
61086;BME280;46967;48.876;2.136;2022-11-15T06:18:53;100415.28;;;9.00;98.87
61086;BME280;46967;48.876;2.136;2022-11-15T06:21:19;100409.34;;;8.98;99.05
61086;BME280;46967;48.876;2.136;2022-11-15T06:23:44;100411.81;;;9.01;99.14
61086;BME280;46967;48.876;2.136;2022-11-15T06:26:09;100410.06;;;9.01;98.99
61086;BME280;46967;48.876;2.136;2022-11-15T06:28:34;100408.94;;;9.10;98.33
61086;BME280;46967;48.876;2.136;2022-11-15T06:31:09;100400.44;;;9.06;98.30
61086;BME280;46967;48.876;2.136;2022-11-15T06:33:34;100386.41;;;9.14;97.92
61086;BME280;46967;48.876;2.136;2022-11-15T06:36:07;100378.97;;;9.03;98.54
61086;BME280;46967;48.876;2.136;2022-11-15T06:38:34;100378.97;;;9.03;98.76
61086;BME280;46967;48.876;2.136;2022-11-15T06:41:04;100385.81;;;9.04;98.76
61086;BME280;46967;48.876;2.136;2022-11-15T06:43:30;100373.75;;;9.04;98.83
61086;BME280;46967;48.876;2.136;2022-11-15T06:45:58;100369.41;;;9.05;98.74
61086;BME280;46967;48.876;2.136;2022-11-15T06:48:23;100360.66;;;9.09;98.71
61086;BME280;46967;48.876;2.136;2022-11-15T06:50:52;100353.03;;;9.04;98.82
61086;BME280;46967;48.876;2.136;2022-11-15T06:53:18;100350.59;;;9.00;98.96
61086;BME280;46967;48.876;2.136;2022-11-15T06:55:44;100344.72;;;8.95;99.46
61086;BME280;46967;48.876;2.136;2022-11-15T06:58:09;100348.88;;;8.99;99.34
61086;BME280;46967;48.876;2.136;2022-11-15T07:00:34;100353.13;;;9.01;99.60
61086;BME280;46967;48.876;2.136;2022-11-15T07:03:00;100339.19;;;9.05;99.41
61086;BME280;46967;48.876;2.136;2022-11-15T07:05:26;100340.19;;;9.01;99.76
61086;BME280;46967;48.876;2.136;2022-11-15T07:07:56;100353.19;;;9.00;99.95
61086;BME280;46967;48.876;2.136;2022-11-15T07:10:22;100362.66;;;9.01;100.00
61086;BME280;46967;48.876;2.136;2022-11-15T07:12:52;100360.00;;;9.02;100.00
61086;BME280;46967;48.876;2.136;2022-11-15T07:15:19;100354.56;;;9.10;100.00
61086;BME280;46967;48.876;2.136;2022-11-15T07:17:45;100351.00;;;9.14;99.77
61086;BME280;46967;48.876;2.136;2022-11-15T07:20:11;100346.72;;;9.13;99.84
61086;BME280;46967;48.876;2.136;2022-11-15T07:22:38;100351.81;;;9.16;100.00
61086;BME280;46967;48.876;2.136;2022-11-15T07:25:03;100350.06;;;9.17;99.99
61086;BME280;46967;48.876;2.136;2022-11-15T07:27:29;100352.34;;;9.26;99.61
61086;BME280;46967;48.876;2.136;2022-11-15T07:29:54;100343.09;;;9.19;100.00
61086;BME280;46967;48.876;2.136;2022-11-15T07:32:19;100329.06;;;9.26;99.48
61086;BME280;46967;48.876;2.136;2022-11-15T07:34:45;100323.88;;;9.26;99.55
61086;BME280;46967;48.876;2.136;2022-11-15T07:37:11;100325.44;;;9.32;99.50
61086;BME280;46967;48.876;2.136;2022-11-15T07:39:36;100319.38;;;9.33;99.53
61086;BME280;46967;48.876;2.136;2022-11-15T07:42:02;100313.22;;;9.35;99.53
61086;BME280;46967;48.876;2.136;2022-11-15T07:44:46;100312.38;;;9.35;99.51
61086;BME280;46967;48.876;2.136;2022-11-15T07:47:11;100315.31;;;9.51;98.71
61086;BME280;46967;48.876;2.136;2022-11-15T07:49:37;100311.94;;;9.49;98.76
61086;BME280;46967;48.876;2.136;2022-11-15T07:52:02;100302.50;;;9.46;98.61
61086;BME280;46967;48.876;2.136;2022-11-15T07:54:27;100293.81;;;9.49;98.77
61086;BME280;46967;48.876;2.136;2022-11-15T07:56:53;100303.41;;;9.45;98.74
61086;BME280;46967;48.876;2.136;2022-11-15T07:59:18;100302.63;;;9.43;98.87
61086;BME280;46967;48.876;2.136;2022-11-15T08:01:44;100300.91;;;9.42;98.90
61086;BME280;46967;48.876;2.136;2022-11-15T08:04:10;100305.94;;;9.47;98.72
61086;BME280;46967;48.876;2.136;2022-11-15T08:06:36;100297.34;;;9.46;98.70
61086;BME280;46967;48.876;2.136;2022-11-15T08:09:01;100300.66;;;9.50;98.45
61086;BME280;46967;48.876;2.136;2022-11-15T08:11:27;100311.84;;;9.52;98.36
61086;BME280;46967;48.876;2.136;2022-11-15T08:13:52;100298.56;;;9.61;97.96
61086;BME280;46967;48.876;2.136;2022-11-15T08:16:17;100305.44;;;9.62;97.57
61086;BME280;46967;48.876;2.136;2022-11-15T08:18:43;100306.28;;;9.63;97.55
61086;BME280;46967;48.876;2.136;2022-11-15T08:21:09;100306.03;;;9.70;97.29
61086;BME280;46967;48.876;2.136;2022-11-15T08:23:35;100305.28;;;9.67;97.44
61086;BME280;46967;48.876;2.136;2022-11-15T08:26:02;100299.28;;;9.66;97.57
61086;BME280;46967;48.876;2.136;2022-11-15T08:28:28;100287.84;;;9.72;97.52
61086;BME280;46967;48.876;2.136;2022-11-15T08:30:53;100287.78;;;9.73;97.51
61086;BME280;46967;48.876;2.136;2022-11-15T08:33:19;100275.44;;;9.80;97.21
61086;BME280;46967;48.876;2.136;2022-11-15T08:35:44;100282.28;;;9.83;96.50
61086;BME280;46967;48.876;2.136;2022-11-15T08:38:10;100273.31;;;9.93;96.31
61086;BME280;46967;48.876;2.136;2022-11-15T08:40:36;100270.19;;;10.07;95.28
61086;BME280;46967;48.876;2.136;2022-11-15T08:43:01;100273.81;;;10.03;95.68
61086;BME280;46967;48.876;2.136;2022-11-15T08:45:28;100262.41;;;10.07;95.08
61086;BME280;46967;48.876;2.136;2022-11-15T08:47:54;100258.88;;;10.09;95.31
61086;BME280;46967;48.876;2.136;2022-11-15T08:50:20;100256.91;;;10.16;94.87
61086;BME280;46967;48.876;2.136;2022-11-15T08:52:45;100249.91;;;10.18;94.90
61086;BME280;46967;48.876;2.136;2022-11-15T08:55:11;100232.22;;;10.29;94.03
61086;BME280;46967;48.876;2.136;2022-11-15T08:57:36;100242.53;;;10.31;93.73
61086;BME280;46967;48.876;2.136;2022-11-15T09:00:02;100246.97;;;10.27;93.88
61086;BME280;46967;48.876;2.136;2022-11-15T09:02:28;100246.50;;;10.41;93.28
61086;BME280;46967;48.876;2.136;2022-11-15T09:04:54;100237.31;;;10.32;93.38
61086;BME280;46967;48.876;2.136;2022-11-15T09:07:19;100247.63;;;10.34;93.70
61086;BME280;46967;48.876;2.136;2022-11-15T09:09:50;100241.34;;;10.40;93.39
61086;BME280;46967;48.876;2.136;2022-11-15T09:12:15;100248.06;;;10.45;93.44
61086;BME280;46967;48.876;2.136;2022-11-15T09:14:40;100244.50;;;10.48;92.63
61086;BME280;46967;48.876;2.136;2022-11-15T09:17:09;100236.00;;;10.44;92.32
61086;BME280;46967;48.876;2.136;2022-11-15T09:19:34;100233.78;;;10.57;92.03
61086;BME280;46967;48.876;2.136;2022-11-15T09:22:00;100237.66;;;10.69;91.18
61086;BME280;46967;48.876;2.136;2022-11-15T09:24:25;100231.59;;;10.68;90.93
61086;BME280;46967;48.876;2.136;2022-11-15T09:26:51;100234.19;;;10.68;90.73
61086;BME280;46967;48.876;2.136;2022-11-15T09:29:17;100227.22;;;10.71;90.33
61086;BME280;46967;48.876;2.136;2022-11-15T09:31:43;100229.81;;;10.71;90.20
61086;BME280;46967;48.876;2.136;2022-11-15T09:34:08;100231.41;;;10.73;90.03
61086;BME280;46967;48.876;2.136;2022-11-15T09:36:34;100231.19;;;10.79;89.48
61086;BME280;46967;48.876;2.136;2022-11-15T09:39:00;100229.31;;;10.83;88.83
61086;BME280;46967;48.876;2.136;2022-11-15T09:44:56;100224.06;;;10.84;91.09
61086;BME280;46967;48.876;2.136;2022-11-15T09:50:32;100218.72;;;10.87;91.92
61086;BME280;46967;48.876;2.136;2022-11-15T09:52:59;100211.44;;;10.75;93.83
61086;BME280;46967;48.876;2.136;2022-11-15T09:55:35;100210.53;;;10.76;94.11
61086;BME280;46967;48.876;2.136;2022-11-15T09:58:18;100202.22;;;10.68;95.17
61086;BME280;46967;48.876;2.136;2022-11-15T10:00:50;100197.75;;;10.72;96.01
61086;BME280;46967;48.876;2.136;2022-11-15T10:03:30;100205.53;;;10.72;96.11
61086;BME280;46967;48.876;2.136;2022-11-15T10:06:01;100186.00;;;10.63;97.61
61086;BME280;46967;48.876;2.136;2022-11-15T10:11:10;100181.88;;;10.57;97.48
61086;BME280;46967;48.876;2.136;2022-11-15T10:13:40;100180.88;;;10.61;97.86
61086;BME280;46967;48.876;2.136;2022-11-15T10:19:32;100170.38;;;10.64;97.39
61086;BME280;46967;48.876;2.136;2022-11-15T10:22:28;100154.78;;;10.64;97.91
61086;BME280;46967;48.876;2.136;2022-11-15T10:27:34;100161.53;;;10.68;98.13
61086;BME280;46967;48.876;2.136;2022-11-15T10:30:00;100152.72;;;10.73;97.93
61086;BME280;46967;48.876;2.136;2022-11-15T10:32:25;100140.00;;;10.66;98.20
61086;BME280;46967;48.876;2.136;2022-11-15T10:34:50;100140.41;;;10.78;98.05
61086;BME280;46967;48.876;2.136;2022-11-15T10:37:36;100136.22;;;10.74;99.01
61086;BME280;46967;48.876;2.136;2022-11-15T10:40:03;100132.75;;;10.75;99.29
61086;BME280;46967;48.876;2.136;2022-11-15T10:42:29;100124.88;;;10.76;99.68
61086;BME280;46967;48.876;2.136;2022-11-15T10:44:55;100124.13;;;10.74;99.59
61086;BME280;46967;48.876;2.136;2022-11-15T10:47:30;100116.84;;;10.82;99.16
61086;BME280;46967;48.876;2.136;2022-11-15T10:50:11;100108.28;;;10.80;99.98
61086;BME280;46967;48.876;2.136;2022-11-15T10:52:50;100103.81;;;10.84;99.46
61086;BME280;46967;48.876;2.136;2022-11-15T10:57:49;100091.41;;;10.91;99.94
61086;BME280;46967;48.876;2.136;2022-11-15T11:05:38;100073.88;;;10.96;100.00
61086;BME280;46967;48.876;2.136;2022-11-15T11:08:24;100075.78;;;10.92;100.00
61086;BME280;46967;48.876;2.136;2022-11-15T11:10:55;100077.53;;;10.92;100.00
61086;BME280;46967;48.876;2.136;2022-11-15T11:13:28;100061.88;;;10.93;100.00
61086;BME280;46967;48.876;2.136;2022-11-15T11:19:10;100058.09;;;11.00;100.00
61086;BME280;46967;48.876;2.136;2022-11-15T11:21:58;100065.69;;;11.05;100.00
61086;BME280;46967;48.876;2.136;2022-11-15T11:24:36;100057.91;;;11.05;100.00
61086;BME280;46967;48.876;2.136;2022-11-15T11:29:52;100059.22;;;11.15;100.00
61086;BME280;46967;48.876;2.136;2022-11-15T11:40:32;100036.81;;;11.13;100.00
61086;BME280;46967;48.876;2.136;2022-11-15T11:48:27;100021.84;;;11.18;100.00
61086;BME280;46967;48.876;2.136;2022-11-15T11:51:04;100020.25;;;11.15;100.00
61086;BME280;46967;48.876;2.136;2022-11-15T11:53:54;100017.84;;;11.11;100.00
61086;BME280;46967;48.876;2.136;2022-11-15T11:56:28;100020.94;;;11.19;100.00
61086;BME280;46967;48.876;2.136;2022-11-15T11:59:00;100004.00;;;11.10;100.00
61086;BME280;46967;48.876;2.136;2022-11-15T12:01:37;100000.38;;;11.14;100.00
61086;BME280;46967;48.876;2.136;2022-11-15T12:04:30;100003.59;;;11.19;100.00
61086;BME280;46967;48.876;2.136;2022-11-15T12:12:39;99975.91;;;11.20;100.00
61086;BME280;46967;48.876;2.136;2022-11-15T12:17:36;99974.28;;;11.17;100.00
61086;BME280;46967;48.876;2.136;2022-11-15T12:20:20;99974.19;;;11.19;100.00
61086;BME280;46967;48.876;2.136;2022-11-15T12:22:55;99980.50;;;11.32;100.00
61086;BME280;46967;48.876;2.136;2022-11-15T12:25:45;99974.41;;;11.33;100.00
61086;BME280;46967;48.876;2.136;2022-11-15T12:31:02;99954.25;;;11.38;100.00
61086;BME280;46967;48.876;2.136;2022-11-15T12:33:32;99954.25;;;11.38;100.00
61086;BME280;46967;48.876;2.136;2022-11-15T12:36:04;99941.91;;;11.44;100.00
61086;BME280;46967;48.876;2.136;2022-11-15T12:41:22;99927.00;;;11.47;100.00
61086;BME280;46967;48.876;2.136;2022-11-15T12:43:49;99923.41;;;11.50;100.00
61086;BME280;46967;48.876;2.136;2022-11-15T12:51:23;99902.53;;;11.51;100.00
61086;BME280;46967;48.876;2.136;2022-11-15T13:04:42;99890.44;;;11.69;100.00
61086;BME280;46967;48.876;2.136;2022-11-15T13:12:53;99881.09;;;11.65;100.00
61086;BME280;46967;48.876;2.136;2022-11-15T13:20:48;99880.50;;;11.77;100.00
61086;BME280;46967;48.876;2.136;2022-11-15T13:23:15;99874.56;;;11.75;100.00
61086;BME280;46967;48.876;2.136;2022-11-15T13:25:52;99866.44;;;11.82;100.00
61086;BME280;46967;48.876;2.136;2022-11-15T13:31:25;99870.13;;;11.95;100.00
61086;BME280;46967;48.876;2.136;2022-11-15T13:33:52;99863.31;;;11.92;100.00
61086;BME280;46967;48.876;2.136;2022-11-15T13:36:20;99864.09;;;11.94;100.00
61086;BME280;46967;48.876;2.136;2022-11-15T13:41:23;99869.84;;;12.01;100.00
61086;BME280;46967;48.876;2.136;2022-11-15T13:43:50;99860.41;;;11.99;100.00
61086;BME280;46967;48.876;2.136;2022-11-15T13:46:32;99843.81;;;12.01;100.00
61086;BME280;46967;48.876;2.136;2022-11-15T13:49:01;99842.38;;;11.95;100.00
61086;BME280;46967;48.876;2.136;2022-11-15T13:56:51;99841.63;;;11.93;100.00
61086;BME280;46967;48.876;2.136;2022-11-15T13:59:27;99835.00;;;11.86;100.00
61086;BME280;46967;48.876;2.136;2022-11-15T14:01:54;99827.13;;;11.88;100.00
61086;BME280;46967;48.876;2.136;2022-11-15T14:04:22;99803.78;;;11.86;100.00
61086;BME280;46967;48.876;2.136;2022-11-15T14:06:57;99802.53;;;11.77;100.00
61086;BME280;46967;48.876;2.136;2022-11-15T14:11:59;99785.00;;;11.81;100.00
61086;BME280;46967;48.876;2.136;2022-11-15T14:14:28;99777.28;;;11.79;100.00
61086;BME280;46967;48.876;2.136;2022-11-15T14:16:59;99776.91;;;11.87;100.00
61086;BME280;46967;48.876;2.136;2022-11-15T14:22:15;99775.19;;;11.86;100.00
61086;BME280;46967;48.876;2.136;2022-11-15T14:24:44;99771.34;;;11.95;100.00
61086;BME280;46967;48.876;2.136;2022-11-15T14:27:28;99765.66;;;11.87;100.00
61086;BME280;46967;48.876;2.136;2022-11-15T14:29:54;99767.59;;;11.83;100.00
61086;BME280;46967;48.876;2.136;2022-11-15T14:32:21;99765.59;;;11.88;100.00
61086;BME280;46967;48.876;2.136;2022-11-15T14:34:48;99764.53;;;11.92;100.00
61086;BME280;46967;48.876;2.136;2022-11-15T14:37:23;99754.41;;;11.86;100.00
61086;BME280;46967;48.876;2.136;2022-11-15T14:39:49;99756.84;;;11.89;100.00
61086;BME280;46967;48.876;2.136;2022-11-15T14:42:15;99759.38;;;11.91;100.00
61086;BME280;46967;48.876;2.136;2022-11-15T14:44:40;99748.91;;;11.92;100.00
61086;BME280;46967;48.876;2.136;2022-11-15T14:47:06;99751.19;;;11.99;100.00
61086;BME280;46967;48.876;2.136;2022-11-15T14:49:31;99749.47;;;11.99;100.00
61086;BME280;46967;48.876;2.136;2022-11-15T14:51:56;99758.25;;;11.96;100.00
61086;BME280;46967;48.876;2.136;2022-11-15T14:54:22;99755.41;;;12.01;100.00
61086;BME280;46967;48.876;2.136;2022-11-15T14:56:47;99755.94;;;12.08;100.00
61086;BME280;46967;48.876;2.136;2022-11-15T14:59:12;99742.44;;;12.17;100.00
61086;BME280;46967;48.876;2.136;2022-11-15T15:01:38;99742.69;;;12.12;100.00
61086;BME280;46967;48.876;2.136;2022-11-15T15:04:03;99740.50;;;12.21;100.00